Kloten, North Dakota
Current Conditions -  °F | °C
As of 7:58 AM on Wednesday 26 Nov 2014 (Local Time) from KRDR Reporting Station
Overcast Overcast  
Wind Chill: -23°   Ceiling: 11000
Heat Index: -2°   Visibility: 10mi
Dew Point: -9°   Wind: 16mph
Humidity: 73%   Direction: 10°N
Pressure: 30.39"   Gusts: 21mph
Location:  47.8026°N, 98.1398°W
Report Text: KRDR 261358Z AUTO 01014G18KT 10SM FEW043 OVC110 M19/M23 A3039 RMK AO2 SLP320 T11891226
Loading
Personal Weather Stations






























Interactive Weather Map New forecast layout! Learn more

10-Day Weather Forecast

Advertisements
Track Severe Weather on mobile